Archival Weather

Norman Y Mineta San Jose Intl

San Jose, California (KSJC)

Report from: Saturday, February 24, 2024 10:53 AM PST
Current time: Friday, June 14, 2024 5:50 AM PDT

Current weather – Weather history – Daily summaries
Weather forecast

Temperature18.9°C (66.0°F)
Dew point6.7°C (44.1°F)
Winds 3 kts (1.5 m/s, 3.5 mph) Vrb
Winds variableWinds variable
Visibility10 mi. (16.1 km)
Clouds Few clouds 8,000 ft. (2,438 m)
Altimeter30.06 in.Hg (1018 mB)
Relative humidity45 %
Density altitude444 ft. (135 m)
Sea-level pressure101.8 kPa (1018 mB, 30.06 in.Hg)
Remarks Automated weather observing station with precipitation discriminator
Flight conditions Visual Meteorological Conditions
Raw dataKSJC 241853Z VRB03KT 10SM FEW080 19/07 A3006 RMK AO2 SLP179 T01890067
An error has occurred. This application may no longer respond until reloaded. Reload 🗙